EST,Max TemperatureF,Mean TemperatureF,Min TemperatureF,Max Dew PointF,MeanDew PointF,Min DewpointF,Max Humidity, Mean Humidity, Min Humidity, Max Sea Level PressureIn, Mean Sea Level PressureIn, Min Sea Level PressureIn, Max VisibilityMiles, Mean VisibilityMiles, Min VisibilityMiles, Max Wind SpeedMPH, Mean Wind SpeedMPH, Max Gust SpeedMPH,PrecipitationIn, CloudCover, Events, WindDirDegrees
2012-12-1,59,50,40,47,42,37,90,74,59,30.25,30.16,30.04,10,7,2,17,7,28,0.00,5,,151
2012-12-2,57,54,52,54,51,45,93,83,62,30.12,30.01,29.95,10,7,2,16,9,25,0.00,8,Rain,222
2012-12-3,63,57,51,58,54,49,94,87,72,30.13,30.06,29.96,10,5,0,16,4,26,0.00,6,Fog,169
2012-12-4,61,52,42,54,45,33,88,75,65,30.13,30.02,29.95,10,10,3,15,10,23,0.00,4,Rain,245
2012-12-5,41,32,24,33,23,19,86,67,49,30.41,30.33,30.14,10,10,10,14,5,20,0.00,0,,339
2012-12-6,38,30,22,31,25,19,89,75,60,30.35,30.16,29.97,10,10,5,9,2,,0.00,0,,151
2012-12-7,44,40,37,41,38,32,93,86,75,29.98,29.93,29.87,10,6,2,5,1,,0.00,7,Rain,154
2012-12-8,43,39,35,41,37,31,93,89,81,30.15,29.94,29.82,10,6,0,10,3,,0.00,8,Fog-Rain,19
2012-12-9,42,38,35,41,35,30,93,85,75,30.16,29.95,29.64,10,6,0,14,6,24,0.00,8,Fog-Rain,89
2012-12-10,43,38,33,42,34,25,93,80,69,29.87,29.70,29.62,10,8,1,14,6,20,0.00,8,Rain,280
2012-12-11,36,32,28,28,23,18,81,70,55,30.19,30.03,29.87,10,10,3,13,4,18,0.00,5,Snow,240
2012-12-12,43,34,26,26,23,22,86,71,47,30.39,30.32,30.19,10,10,7,10,6,,0.00,0,,212
2012-12-13,45,36,27,26,24,22,83,66,41,30.39,30.32,30.19,10,10,10,10,5,,0.00,0,,193
2012-12-14,48,40,31,29,27,24,90,67,46,30.26,30.21,30.17,10,9,3,8,4,,0.00,0,,222
2012-12-15,48,38,29,41,33,27,93,79,51,30.16,29.97,29.70,10,7,3,10,3,17,0.00,5,Rain,136
2012-12-16,56,50,44,49,45,38,88,79,71,29.70,29.65,29.60,10,10,7,13,8,22,0.00,8,Rain,230
2012-12-17,43,42,39,38,35,33,81,77,71,29.75,29.68,29.61,10,9,7,10,5,18,0.00,8,Rain,277
2012-12-18,40,36,32,34,32,29,90,79,65,29.79,29.73,29.63,10,7,2,12,5,16,0.00,6,Rain,256
2012-12-19,41,36,32,35,33,30,95,85,71,30.12,29.98,29.72,10,6,0,7,1,,0.00,8,Fog,306
2012-12-20,49,42,34,46,37,29,91,84,74,30.04,29.54,29.17,10,7,2,26,10,37,0.00,8,Rain-Snow,133
2012-12-21,35,34,32,32,27,23,94,77,63,29.89,29.49,29.18,10,8,2,21,11,34,0.00,8,Snow,296
2012-12-22,37,32,26,25,22,20,81,66,52,30.11,30.03,29.90,10,10,10,16,11,30,0.00,4,,279
2012-12-23,36,28,21,25,21,18,87,76,56,30.03,29.96,29.91,10,10,7,9,4,,0.00,0,,287
2012-12-24,35,28,21,30,25,17,89,82,69,30.00,29.90,29.80,10,9,2,12,3,21,0.00,5,Snow,64
2012-12-25,32,28,24,26,24,21,87,76,68,30.27,30.19,29.99,10,10,10,10,5,18,0.00,6,,10
2012-12-26,32,29,26,27,24,22,86,79,67,30.22,29.93,29.79,10,6,1,21,12,33,0.00,8,Snow,29
2012-12-27,32,24,16,25,21,14,91,81,68,30.16,30.05,29.86,10,8,1,13,7,20,0.00,5,Snow,313
2012-12-28,32,22,12,25,19,9,90,83,73,30.18,30.08,29.91,10,7,2,7,1,,0.00,5,Snow,92
2012-12-29,30,28,23,28,25,20,92,86,78,30.07,29.88,29.79,10,4,1,8,3,,0.00,8,Snow,325
2012-12-30,29,24,19,26,19,14,90,80,72,30.33,30.25,30.08,10,8,3,14,7,20,0.00,5,Snow,236
2012-12-31,35,28,22,29,23,16,89,75,62,30.22,30.04,29.96,10,9,3,18,9,30,0.00,4,Snow,231